Time;durP1;ratioP1;P1;durP2;ratioP2;P2;SDS_P1;SDS_P2;PMS_P1;PMS_P2;Temp;Humidity;BMP_temperature;BMP_pressure;BME280_temperature;BME280_humidity;BME280_pressure;Samples;Min_cycle;Max_cycle;Signal;HPM_P1;HPM_P2
2023/08/30 00:09:48;;;;;;;;;;;12.70;99.90;;;;;;21002727;28;19917;-76
2023/08/30 00:19:48;;;;;;;;;;;12.60;99.90;;;;;;20984402;28;19924;-76
2023/08/30 00:29:49;;;;;;;;;;;12.30;99.90;;;;;;20983454;28;19924;-75
2023/08/30 00:39:50;;;;;;;;;;;12.20;99.90;;;;;;20970834;28;20011;-76
2023/08/30 00:49:50;;;;;;;;;;;12.10;99.90;;;;;;20977409;28;19912;-76
2023/08/30 00:59:53;;;;;;;;;;;11.90;99.90;;;;;;20966566;28;19916;-75
2023/08/30 01:09:55;;;;;;;;;;;11.80;99.90;;;;;;20996125;28;19981;-76
2023/08/30 01:19:59;;;;;;;;;;;11.70;99.90;;;;;;20997425;28;19956;-76
2023/08/30 01:30:02;;;;;;;;;;;11.60;99.90;;;;;;20995823;28;19955;-76
2023/08/30 01:40:05;;;;;;;;;;;11.40;99.90;;;;;;20994271;28;19916;-77
2023/08/30 01:50:06;;;;;;;;;;;11.30;99.90;;;;;;20993694;28;20285;-76
2023/08/30 02:00:07;;;;;;;;;;;11.20;99.90;;;;;;20997454;28;20374;-76
2023/08/30 02:10:21;;;;;;;;;;;11.20;99.90;;;;;;20993312;28;19919;-76
2023/08/30 02:20:22;;;;;;;;;;;11.10;99.90;;;;;;20975338;28;19920;-76
2023/08/30 02:30:23;;;;;;;;;;;11.20;99.90;;;;;;20990588;28;20387;-76
2023/08/30 02:40:24;;;;;;;;;;;11.30;99.90;;;;;;20991394;28;19917;-76
2023/08/30 02:50:24;;;;;;;;;;;11.10;99.90;;;;;;20992134;28;20445;-75
2023/08/30 03:00:25;;;;;;;;;;;11.10;99.90;;;;;;20996975;28;19916;-76
2023/08/30 03:10:26;;;;;;;;;;;11.10;99.90;;;;;;20972141;28;19951;-76
2023/08/30 03:20:28;;;;;;;;;;;11.30;99.90;;;;;;20984647;28;19920;-76
2023/08/30 03:30:29;;;;;;;;;;;11.30;99.90;;;;;;20967467;28;19927;-76
2023/08/30 03:40:30;;;;;;;;;;;11.50;99.90;;;;;;20967727;22;19925;-79
2023/08/30 03:50:31;;;;;;;;;;;11.50;99.90;;;;;;20940033;28;20441;-77
2023/08/30 04:00:35;;;;;;;;;;;11.50;99.90;;;;;;20904092;28;20024;-77
2023/08/30 04:10:36;;;;;;;;;;;11.60;99.90;;;;;;20947620;28;19920;-79
2023/08/30 04:20:42;;;;;;;;;;;11.50;99.90;;;;;;20926239;28;19923;-79
2023/08/30 04:30:43;;;;;;;;;;;11.50;99.90;;;;;;20997664;28;19913;-78
2023/08/30 04:40:44;;;;;;;;;;;11.40;99.90;;;;;;21009228;28;19922;-79
2023/08/30 04:50:47;;;;;;;;;;;11.40;99.90;;;;;;21006382;28;19912;-79
2023/08/30 05:00:48;;;;;;;;;;;11.40;99.90;;;;;;20921034;28;19931;-79
2023/08/30 05:10:49;;;;;;;;;;;11.50;99.90;;;;;;20955138;28;19923;-78
2023/08/30 05:20:51;;;;;;;;;;;11.50;99.90;;;;;;20917733;28;20386;-76
2023/08/30 05:30:52;;;;;;;;;;;11.60;99.90;;;;;;20928980;28;19983;-77
2023/08/30 05:41:25;;;;;;;;;;;11.70;99.90;;;;;;20907582;28;20007;-78
2023/08/30 05:51:26;;;;;;;;;;;11.80;99.90;;;;;;20915512;28;19912;-79
2023/08/30 06:01:26;;;;;;;;;;;12.10;99.90;;;;;;20914051;28;19984;-79
2023/08/30 06:11:27;;;;;;;;;;;12.50;99.90;;;;;;20935930;28;19944;-78
2023/08/30 06:21:28;;;;;;;;;;;12.40;99.90;;;;;;20934484;28;19916;-79
2023/08/30 06:31:28;;;;;;;;;;;12.60;99.90;;;;;;20933730;28;19923;-79
2023/08/30 06:41:29;;;;;;;;;;;12.90;99.90;;;;;;20932299;28;19916;-79
2023/08/30 06:51:30;;;;;;;;;;;13.00;99.90;;;;;;20928246;28;19919;-78
2023/08/30 07:01:30;;;;;;;;;;;13.40;99.90;;;;;;20921476;28;19924;-76
2023/08/30 07:11:31;;;;;;;;;;;14.30;99.90;;;;;;20919518;28;20290;-77
2023/08/30 07:21:32;;;;;;;;;;;14.70;99.90;;;;;;20944380;28;19924;-79
2023/08/30 07:31:33;;;;;;;;;;;15.40;99.90;;;;;;20949451;28;19917;-79
2023/08/30 07:41:34;;;;;;;;;;;15.80;99.90;;;;;;20941401;28;19943;-79
2023/08/30 07:51:34;;;;;;;;;;;15.10;99.90;;;;;;20942556;28;20283;-78
2023/08/30 08:01:35;;;;;;;;;;;15.10;99.90;;;;;;20943791;28;19940;-77
2023/08/30 08:11:36;;;;;;;;;;;15.40;99.90;;;;;;20943057;28;19941;-78
2023/08/30 08:21:36;;;;;;;;;;;15.30;99.90;;;;;;20942603;28;19924;-78
2023/08/30 08:31:37;;;;;;;;;;;15.60;99.90;;;;;;20943809;28;20000;-78
2023/08/30 08:41:42;;;;;;;;;;;16.20;99.90;;;;;;20943452;28;19923;-78
2023/08/30 08:51:43;;;;;;;;;;;17.30;99.90;;;;;;20941861;28;19913;-77
2023/08/30 09:01:44;;;;;;;;;;;18.20;99.90;;;;;;20942561;28;19983;-79
2023/08/30 09:11:44;;;;;;;;;;;17.00;99.90;;;;;;20940905;28;19920;-78
2023/08/30 09:21:55;;;;;;;;;;;16.70;99.90;;;;;;20929241;28;19975;-79
2023/08/30 09:31:56;;;;;;;;;;;17.60;99.90;;;;;;20920722;28;19967;-78
2023/08/30 09:41:56;;;;;;;;;;;18.00;99.90;;;;;;21120012;22;19931;-83
2023/08/30 09:51:59;;;;;;;;;;;18.70;99.90;;;;;;21166099;28;19919;-82
2023/08/30 10:02:00;;;;;;;;;;;20.10;99.90;;;;;;21167829;28;19942;-83
2023/08/30 10:12:01;;;;;;;;;;;20.00;99.90;;;;;;21151342;28;19912;-82
2023/08/30 10:22:08;;;;;;;;;;;20.10;99.90;;;;;;21156892;28;20374;-83
2023/08/30 10:32:09;;;;;;;;;;;21.90;99.90;;;;;;21172304;28;20274;-82
2023/08/30 10:42:11;;;;;;;;;;;21.40;99.90;;;;;;21173010;28;19934;-85
2023/08/30 10:52:12;;;;;;;;;;;20.40;99.90;;;;;;21163577;28;19916;-83
2023/08/30 11:02:12;;;;;;;;;;;21.50;99.90;;;;;;21187007;28;19995;-84
2023/08/30 11:12:13;;;;;;;;;;;21.70;99.90;;;;;;21171757;28;19958;-83
2023/08/30 11:22:14;;;;;;;;;;;19.80;99.90;;;;;;21139386;28;20014;-85
2023/08/30 11:32:16;;;;;;;;;;;19.50;99.90;;;;;;21123262;28;19985;-83
2023/08/30 11:42:17;;;;;;;;;;;19.30;99.90;;;;;;21137218;28;20122;-83
2023/08/30 11:52:18;;;;;;;;;;;19.00;99.90;;;;;;21114179;28;19958;-83
2023/08/30 12:02:18;;;;;;;;;;;18.70;99.90;;;;;;21171833;28;20335;-83
2023/08/30 12:12:22;;;;;;;;;;;18.50;99.90;;;;;;21157389;28;19912;-85
2023/08/30 12:22:23;;;;;;;;;;;19.90;99.90;;;;;;21161354;28;20289;-84
2023/08/30 12:32:24;;;;;;;;;;;20.60;99.90;;;;;;21148871;28;19918;-85
2023/08/30 12:42:24;;;;;;;;;;;20.20;99.90;;;;;;21153451;28;19923;-84
2023/08/30 12:52:25;;;;;;;;;;;20.60;99.90;;;;;;21168112;28;19912;-85
2023/08/30 13:02:26;;;;;;;;;;;20.50;99.90;;;;;;21158916;28;19954;-85
2023/08/30 13:12:26;;;;;;;;;;;20.20;99.90;;;;;;21168855;28;19916;-86
2023/08/30 13:22:27;;;;;;;;;;;21.20;99.90;;;;;;21190748;28;19963;-83
2023/08/30 13:32:28;;;;;;;;;;;20.60;99.90;;;;;;21194134;28;20063;-84
2023/08/30 13:42:28;;;;;;;;;;;19.70;99.90;;;;;;21178102;28;19923;-84
2023/08/30 13:52:30;;;;;;;;;;;19.60;99.90;;;;;;21185888;28;20334;-85
2023/08/30 14:02:32;;;;;;;;;;;19.40;99.90;;;;;;21176588;28;20216;-83
2023/08/30 14:12:34;;;;;;;;;;;20.50;99.90;;;;;;21163701;28;19912;-83
2023/08/30 14:22:34;;;;;;;;;;;20.40;99.90;;;;;;21139685;28;20010;-82
2023/08/30 14:32:35;;;;;;;;;;;20.90;99.90;;;;;;21162930;28;19965;-85
2023/08/30 14:42:36;;;;;;;;;;;20.90;99.90;;;;;;21092085;28;19922;-83
2023/08/30 14:52:36;;;;;;;;;;;20.70;99.90;;;;;;21108800;28;20018;-84
2023/08/30 15:02:37;;;;;;;;;;;20.10;99.90;;;;;;21078822;28;19971;-84
2023/08/30 15:12:38;;;;;;;;;;;20.60;99.90;;;;;;21066135;28;19916;-83
2023/08/30 15:22:39;;;;;;;;;;;20.60;99.90;;;;;;21052709;28;19939;-84
2023/08/30 15:32:40;;;;;;;;;;;20.30;99.90;;;;;;21149978;27;19918;-84
2023/08/30 15:42:41;;;;;;;;;;;20.40;99.90;;;;;;21152545;28;19916;-83
2023/08/30 15:52:42;;;;;;;;;;;20.60;99.90;;;;;;21174718;28;20259;-84
2023/08/30 16:02:42;;;;;;;;;;;20.70;99.90;;;;;;21160798;28;19923;-82
2023/08/30 16:12:43;;;;;;;;;;;19.90;99.90;;;;;;21166991;28;20282;-82
2023/08/30 16:22:44;;;;;;;;;;;20.10;99.90;;;;;;21191164;28;19923;-81
2023/08/30 16:32:44;;;;;;;;;;;19.80;99.90;;;;;;21161610;22;20274;-78
2023/08/30 16:42:45;;;;;;;;;;;19.70;99.90;;;;;;21152624;27;19916;-77
2023/08/30 16:52:45;;;;;;;;;;;19.50;99.90;;;;;;21126557;28;19912;-78
2023/08/30 17:02:46;;;;;;;;;;;19.70;99.90;;;;;;21135358;28;19959;-78
2023/08/30 17:12:47;;;;;;;;;;;19.50;99.90;;;;;;21153253;28;19962;-76
2023/08/30 17:22:48;;;;;;;;;;;19.30;99.90;;;;;;21180795;28;19916;-78
2023/08/30 17:32:48;;;;;;;;;;;19.10;99.90;;;;;;21159975;28;19916;-78
2023/08/30 17:42:49;;;;;;;;;;;18.90;99.90;;;;;;21141356;28;20399;-78
2023/08/30 17:52:58;;;;;;;;;;;17.90;99.90;;;;;;21072414;28;19919;-77
2023/08/30 18:02:59;;;;;;;;;;;17.30;99.90;;;;;;21091241;28;19951;-78
2023/08/30 18:13:00;;;;;;;;;;;16.30;99.90;;;;;;21141635;28;19916;-78
2023/08/30 18:23:01;;;;;;;;;;;16.00;99.90;;;;;;21146839;28;19926;-77
2023/08/30 18:33:01;;;;;;;;;;;15.90;99.90;;;;;;21022952;28;1792909;-77
2023/08/30 18:43:02;;;;;;;;;;;15.30;99.90;;;;;;21133786;28;20391;-78
2023/08/30 18:53:04;;;;;;;;;;;14.90;99.90;;;;;;21113140;28;19959;-77
2023/08/30 19:03:04;;;;;;;;;;;14.90;99.90;;;;;;21092069;28;20263;-78
2023/08/30 19:13:05;;;;;;;;;;;14.60;99.90;;;;;;21141441;28;19924;-78
2023/08/30 19:23:06;;;;;;;;;;;14.30;99.90;;;;;;21149912;28;20015;-76
2023/08/30 19:33:06;;;;;;;;;;;13.90;99.90;;;;;;21095184;28;19924;-78
2023/08/30 19:43:07;;;;;;;;;;;13.70;99.90;;;;;;21154466;28;19915;-79
2023/08/30 19:53:08;;;;;;;;;;;13.30;99.90;;;;;;21145533;28;20285;-79
2023/08/30 20:03:08;;;;;;;;;;;13.20;99.90;;;;;;21169129;28;19915;-79
2023/08/30 20:13:10;;;;;;;;;;;13.30;99.90;;;;;;21173070;28;20394;-78
2023/08/30 20:23:11;;;;;;;;;;;13.30;99.90;;;;;;21167087;28;19920;-77
2023/08/30 20:33:11;;;;;;;;;;;13.00;99.90;;;;;;21160189;28;19958;-78
2023/08/30 20:43:12;;;;;;;;;;;12.70;99.90;;;;;;21156091;28;19915;-77
2023/08/30 20:53:13;;;;;;;;;;;12.50;99.90;;;;;;21159590;27;19912;-78
2023/08/30 21:03:19;;;;;;;;;;;12.30;99.90;;;;;;21150579;28;19919;-76
2023/08/30 21:13:19;;;;;;;;;;;12.50;99.90;;;;;;21148285;28;19940;-76
2023/08/30 21:23:20;;;;;;;;;;;12.60;99.90;;;;;;21144487;28;20301;-76
2023/08/30 21:33:22;;;;;;;;;;;12.80;99.90;;;;;;21142767;28;19915;-76
2023/08/30 21:43:23;;;;;;;;;;;12.90;99.90;;;;;;21141548;28;19923;-76
2023/08/30 21:53:24;;;;;;;;;;;13.20;99.90;;;;;;21141175;28;19912;-76
2023/08/30 22:03:25;;;;;;;;;;;13.30;99.90;;;;;;21140949;28;20292;-76
2023/08/30 22:13:27;;;;;;;;;;;13.20;99.90;;;;;;21140189;28;19911;-77
2023/08/30 22:23:28;;;;;;;;;;;13.20;99.90;;;;;;21139627;28;20064;-76
2023/08/30 22:33:35;;;;;;;;;;;13.30;99.90;;;;;;21142059;28;19951;-76
2023/08/30 22:43:35;;;;;;;;;;;13.60;99.90;;;;;;21137408;28;19916;-76
2023/08/30 22:53:36;;;;;;;;;;;13.60;99.90;;;;;;21141228;28;20007;-78
2023/08/30 23:03:37;;;;;;;;;;;13.60;99.90;;;;;;21152713;28;20285;-78
2023/08/30 23:13:37;;;;;;;;;;;13.80;99.90;;;;;;21149813;28;20392;-78
2023/08/30 23:23:40;;;;;;;;;;;13.60;99.90;;;;;;21146550;28;19923;-78
2023/08/30 23:33:40;;;;;;;;;;;13.50;99.90;;;;;;21133952;28;19916;-77
2023/08/30 23:43:41;;;;;;;;;;;13.60;99.90;;;;;;21129345;28;19926;-79
2023/08/30 23:53:42;;;;;;;;;;;13.50;99.90;;;;;;21152034;28;19918;-77
